Marshall, OK

5:00 PM CST on December 22, 2014 (GMT -0600)
Enid | Change Station
CLOSE
Current Station
Airport
Location: Enid,
Elevation: 1168 ft
Nearby Weather Stations

Elev 1168 ft 36.38 °N, 97.79 °W | Updated 10 minutes ago

Partly Cloudy
Partly Cloudy
52 °F
Feels Like 52 °F
N
12
Wind Variable Wind from WNW

Today
High -- | Low -- °F
--% Chance of Precip.
Yesterday
High -- | Low -- °F
Precip. -- in
7:38 AM 5:20 PM
New Moon, 1% visible
Pressure 29.62 in
Visibility 10.0 miles
Clouds Few 5000 ft
Mostly Cloudy 13000 ft
Mostly Cloudy 18000 ft
Dew Point 37 °F
Humidity 58%
Rainfall 0.00 in
Snow Depth Not available.
UV 0 out of 12
Pollen 9.30 out of 12
Air Quality Not available.
Flu Activity Not available.
METAR KWDG 222250Z 30010KT 10SM FEW050 BKN130 BKN180 11/03 A2962

More Conditions Fewer Conditions

Pressure 29.62 in
Visibility 10.0 miles
Clouds Few 5000 ft
Mostly Cloudy 13000 ft
Mostly Cloudy 18000 ft
Dew Point 37 °F
Humidity 58%
Rainfall 0.00 in
Snow Depth Not available.
UV 0 out of 12
Pollen 9.30 out of 12
Air Quality Not available.
Flu Activity Not available.
METAR KWDG 222250Z 30010KT 10SM FEW050 BKN130 BKN180 11/03 A2962

More Conditions Fewer Conditions

10-Day Weather Forecast

Almanac

Astronomy

Dec. 22, 2014 Rise Set
Actual Time
Civil Twilight
Nautical Twilight
Astronomical Twilight
Moon
Length of Visible Light
Length of Day
Tomorrow will be .
, % of the Moon is Illuminated

Today's Extremes

State Highs State Lows

Community

WunderPhotos

Upload Photos

1,779,698 photos uploaded!

WunderBlogs® & News

Nearby

Air Quality

  Air Quality AQ Index Pollutant
Not available.

Snow Depth

Station Depth Elevation

Earthquake Activity

City Distance Mag. Time & Date
Minimum magnitude displayed is 2.5.

Coastal Water Temperatures

Place Temperature

Nearby Weather Stations